Ceres, Argentina
Current Conditions -  °F | °C
As of 5:00 PM on Friday 24 Oct 2014 (Local Time) from SACO Reporting Station
Few Clouds Few Clouds  
Wind Chill: 91°   Ceiling: Unl
Heat Index: 91°   Visibility: 6mi
Dew Point: 55°   Wind: 10mph
Humidity: 29%   Direction: 70°ENE
Pressure: 29.91"   Gusts: NA
Location:  29.88°S, 61.94°W
Report Text: SACO 242000Z 07009KT 9999 FEW034TCU33/13 Q1013
Loading
Personal Weather Stations






























Interactive Weather Map New forecast layout! Learn more

10-Day Weather Forecast

Advertisements
Track Severe Weather on mobile